sensor_id;sensor_type;location;lat;lon;timestamp;P1;durP1;ratioP1;P2;durP2;ratioP2
6926;SDS011;3503;50.07605000;8.86719200;2024-03-22T00:07:54;25.47;;;13.17;;
6926;SDS011;3503;50.07605000;8.86719200;2024-03-22T00:22:56;27.33;;;12.53;;
6926;SDS011;3503;50.07605000;8.86719200;2024-03-22T00:37:59;32.67;;;15.80;;
6926;SDS011;3503;50.07605000;8.86719200;2024-03-22T00:53:02;25.80;;;12.07;;
6926;SDS011;3503;50.07605000;8.86719200;2024-03-22T01:08:07;25.57;;;12.70;;
6926;SDS011;3503;50.07605000;8.86719200;2024-03-22T01:23:10;30.20;;;12.50;;
6926;SDS011;3503;50.07605000;8.86719200;2024-03-22T01:38:12;30.90;;;13.83;;
6926;SDS011;3503;50.07605000;8.86719200;2024-03-22T01:53:15;35.27;;;11.77;;
6926;SDS011;3503;50.07605000;8.86719200;2024-03-22T02:08:19;33.53;;;12.57;;
6926;SDS011;3503;50.07605000;8.86719200;2024-03-22T02:23:26;24.93;;;12.30;;
6926;SDS011;3503;50.07605000;8.86719200;2024-03-22T02:38:34;28.90;;;13.37;;
6926;SDS011;3503;50.07605000;8.86719200;2024-03-22T02:53:36;35.43;;;12.80;;
6926;SDS011;3503;50.07605000;8.86719200;2024-03-22T03:08:39;32.63;;;12.90;;
6926;SDS011;3503;50.07605000;8.86719200;2024-03-22T03:23:42;33.10;;;14.63;;
6926;SDS011;3503;50.07605000;8.86719200;2024-03-22T03:38:45;28.17;;;12.20;;
6926;SDS011;3503;50.07605000;8.86719200;2024-03-22T03:53:48;24.20;;;11.17;;
6926;SDS011;3503;50.07605000;8.86719200;2024-03-22T04:08:51;19.63;;;11.57;;
6926;SDS011;3503;50.07605000;8.86719200;2024-03-22T04:23:53;20.87;;;13.73;;
6926;SDS011;3503;50.07605000;8.86719200;2024-03-22T04:38:56;21.23;;;13.57;;
6926;SDS011;3503;50.07605000;8.86719200;2024-03-22T04:53:59;24.40;;;13.03;;
6926;SDS011;3503;50.07605000;8.86719200;2024-03-22T05:09:02;18.40;;;11.80;;
6926;SDS011;3503;50.07605000;8.86719200;2024-03-22T05:24:06;23.93;;;14.90;;
6926;SDS011;3503;50.07605000;8.86719200;2024-03-22T05:39:09;24.13;;;15.17;;
6926;SDS011;3503;50.07605000;8.86719200;2024-03-22T05:54:13;23.67;;;15.40;;
6926;SDS011;3503;50.07605000;8.86719200;2024-03-22T06:09:16;21.50;;;14.13;;
6926;SDS011;3503;50.07605000;8.86719200;2024-03-22T06:24:25;23.53;;;14.37;;
6926;SDS011;3503;50.07605000;8.86719200;2024-03-22T06:39:28;26.07;;;14.97;;
6926;SDS011;3503;50.07605000;8.86719200;2024-03-22T06:54:31;21.30;;;14.27;;
6926;SDS011;3503;50.07605000;8.86719200;2024-03-22T07:09:34;25.30;;;16.27;;
6926;SDS011;3503;50.07605000;8.86719200;2024-03-22T07:24:37;29.63;;;16.03;;
6926;SDS011;3503;50.07605000;8.86719200;2024-03-22T07:39:40;30.17;;;16.40;;
6926;SDS011;3503;50.07605000;8.86719200;2024-03-22T07:54:43;26.23;;;16.27;;
6926;SDS011;3503;50.07605000;8.86719200;2024-03-22T08:09:46;24.77;;;15.03;;
6926;SDS011;3503;50.07605000;8.86719200;2024-03-22T08:24:49;25.40;;;17.03;;
6926;SDS011;3503;50.07605000;8.86719200;2024-03-22T08:39:53;30.17;;;16.50;;
6926;SDS011;3503;50.07605000;8.86719200;2024-03-22T08:54:56;29.00;;;16.70;;
6926;SDS011;3503;50.07605000;8.86719200;2024-03-22T09:09:59;26.63;;;15.40;;
6926;SDS011;3503;50.07605000;8.86719200;2024-03-22T09:25:01;22.97;;;13.60;;
6926;SDS011;3503;50.07605000;8.86719200;2024-03-22T09:40:05;20.20;;;11.37;;
6926;SDS011;3503;50.07605000;8.86719200;2024-03-22T09:55:09;19.40;;;11.30;;
6926;SDS011;3503;50.07605000;8.86719200;2024-03-22T10:10:13;19.90;;;11.10;;
6926;SDS011;3503;50.07605000;8.86719200;2024-03-22T10:25:17;6.97;;;4.70;;
6926;SDS011;3503;50.07605000;8.86719200;2024-03-22T10:40:21;7.47;;;4.77;;
6926;SDS011;3503;50.07605000;8.86719200;2024-03-22T10:55:26;8.60;;;4.57;;
6926;SDS011;3503;50.07605000;8.86719200;2024-03-22T11:10:33;7.63;;;5.50;;
6926;SDS011;3503;50.07605000;8.86719200;2024-03-22T11:25:36;9.13;;;5.93;;
6926;SDS011;3503;50.07605000;8.86719200;2024-03-22T11:40:39;15.70;;;8.43;;
6926;SDS011;3503;50.07605000;8.86719200;2024-03-22T11:55:42;12.73;;;8.47;;
6926;SDS011;3503;50.07605000;8.86719200;2024-03-22T12:10:45;14.97;;;9.80;;
6926;SDS011;3503;50.07605000;8.86719200;2024-03-22T12:25:48;17.47;;;11.00;;
6926;SDS011;3503;50.07605000;8.86719200;2024-03-22T12:40:51;17.20;;;10.77;;
6926;SDS011;3503;50.07605000;8.86719200;2024-03-22T12:55:54;14.57;;;9.30;;
6926;SDS011;3503;50.07605000;8.86719200;2024-03-22T13:10:57;18.10;;;10.23;;
6926;SDS011;3503;50.07605000;8.86719200;2024-03-22T13:26:03;18.80;;;10.67;;
6926;SDS011;3503;50.07605000;8.86719200;2024-03-22T13:41:06;17.17;;;10.17;;
6926;SDS011;3503;50.07605000;8.86719200;2024-03-22T13:56:09;19.23;;;11.47;;
6926;SDS011;3503;50.07605000;8.86719200;2024-03-22T14:11:12;16.97;;;10.60;;
6926;SDS011;3503;50.07605000;8.86719200;2024-03-22T14:26:15;17.03;;;10.40;;
6926;SDS011;3503;50.07605000;8.86719200;2024-03-22T14:41:18;16.47;;;11.17;;
6926;SDS011;3503;50.07605000;8.86719200;2024-03-22T14:56:21;25.40;;;12.30;;
6926;SDS011;3503;50.07605000;8.86719200;2024-03-22T15:11:24;21.50;;;12.67;;
6926;SDS011;3503;50.07605000;8.86719200;2024-03-22T15:26:27;20.60;;;13.13;;
6926;SDS011;3503;50.07605000;8.86719200;2024-03-22T15:41:30;18.50;;;12.33;;
6926;SDS011;3503;50.07605000;8.86719200;2024-03-22T15:56:33;22.00;;;13.00;;
6926;SDS011;3503;50.07605000;8.86719200;2024-03-22T16:11:36;25.57;;;14.27;;
6926;SDS011;3503;50.07605000;8.86719200;2024-03-22T16:26:39;23.70;;;14.97;;
6926;SDS011;3503;50.07605000;8.86719200;2024-03-22T16:41:41;31.90;;;14.30;;
6926;SDS011;3503;50.07605000;8.86719200;2024-03-22T16:56:44;17.43;;;13.07;;
6926;SDS011;3503;50.07605000;8.86719200;2024-03-22T17:11:47;18.43;;;11.47;;
6926;SDS011;3503;50.07605000;8.86719200;2024-03-22T17:26:50;22.63;;;11.93;;
6926;SDS011;3503;50.07605000;8.86719200;2024-03-22T17:41:53;24.93;;;15.00;;
6926;SDS011;3503;50.07605000;8.86719200;2024-03-22T17:56:55;20.63;;;12.93;;
6926;SDS011;3503;50.07605000;8.86719200;2024-03-22T18:11:58;19.83;;;13.50;;
6926;SDS011;3503;50.07605000;8.86719200;2024-03-22T18:27:01;16.83;;;12.63;;
6926;SDS011;3503;50.07605000;8.86719200;2024-03-22T18:42:05;18.50;;;10.60;;
6926;SDS011;3503;50.07605000;8.86719200;2024-03-22T18:57:08;30.43;;;18.40;;
6926;SDS011;3503;50.07605000;8.86719200;2024-03-22T19:12:11;22.77;;;14.57;;
6926;SDS011;3503;50.07605000;8.86719200;2024-03-22T19:27:14;26.00;;;17.87;;
6926;SDS011;3503;50.07605000;8.86719200;2024-03-22T19:42:17;25.50;;;12.47;;
6926;SDS011;3503;50.07605000;8.86719200;2024-03-22T19:57:20;20.27;;;10.83;;
6926;SDS011;3503;50.07605000;8.86719200;2024-03-22T20:12:22;22.93;;;14.37;;
6926;SDS011;3503;50.07605000;8.86719200;2024-03-22T20:27:26;18.93;;;13.13;;
